Sloughhouse, California
Current Conditions -  °F | °C
As of 3:45 PM on Thursday 18 Dec 2014 (Local Time) from KMHR Reporting Station
Scattered Clouds Scattered Clouds  
Wind Chill: 59°   Ceiling: Unl
Heat Index: 59°   Visibility: 10mi
Dew Point: 48°   Wind: 6mph
Humidity: 67%   Direction: 170°S
Pressure: 30.15"   Gusts: NA
Location:  38.5°N, 121.19°W
Report Text: KMHR 182345Z 17005KT 10SM SCT050 15/09 A3015
Loading
Personal Weather Stations






























Interactive Weather Map New forecast layout! Learn more

10-Day Weather Forecast

Advertisements
Track Severe Weather on mobile